Terminal Aerodrome Forecast
Issued by NWS

Home | Current Version | Previous Version | Text Only | Print | Product List | Glossary On
Versions: 1 2 3 4 5 6 7 8 9 10 11 12 13 14 15 16 17
000
FTUS41 KGYX 310711 AAA
TAFLEB
TAF AMD
KLEB 310711Z 3107/0106 17003KT 5SM BR SKC
     FM310900 00000KT 4SM BR OVC100
     FM311200 00000KT P6SM SCT250
     FM311600 28009G16KT P6SM BKN250
     FM312200 33003KT P6SM SKC
     FM010400 00000KT 4SM BR SKC=

USA.gov is the U.S. government's official web portal to all federal, state and local government web resources and services.